Time;durP1;ratioP1;P1;durP2;ratioP2;P2;SDS_P1;SDS_P2;PMS_P1;PMS_P2;Temp;Humidity;BMP_temperature;BMP_pressure;BME280_temperature;BME280_humidity;BME280_pressure;Samples;Min_cycle;Max_cycle;Signal;HPM_P1;HPM_P2
2022/11/19 00:02:07;;;;;;;12.47;10.53;;;11.80;99.90;;;;;;5021728;28;20231;-29
2022/11/19 00:04:38;;;;;;;11.60;10.40;;;11.70;99.90;;;;;;5008519;28;20350;-29
2022/11/19 00:07:08;;;;;;;14.70;10.10;;;11.80;99.90;;;;;;5014622;28;20308;-29
2022/11/19 00:09:38;;;;;;;12.13;10.33;;;11.80;99.90;;;;;;5006790;28;20205;-29
2022/11/19 00:14:52;;;;;;;13.53;10.27;;;11.70;99.90;;;;;;4988690;28;20325;-29
2022/11/19 00:17:19;;;;;;;13.40;10.70;;;11.70;99.90;;;;;;4988578;28;20198;-28
2022/11/19 00:19:47;;;;;;;14.67;11.13;;;11.70;99.90;;;;;;5006983;28;20349;-28
2022/11/19 00:22:16;;;;;;;14.10;10.67;;;11.70;99.90;;;;;;5012973;28;20714;-28
2022/11/19 00:24:46;;;;;;;15.63;11.07;;;11.70;99.90;;;;;;5025646;28;20255;-28
2022/11/19 00:27:13;;;;;;;13.23;10.57;;;11.70;99.90;;;;;;5022517;28;21514;-29
2022/11/19 00:29:40;;;;;;;12.73;10.73;;;11.70;99.90;;;;;;5006291;28;20220;-28
2022/11/19 00:32:07;;;;;;;12.17;10.43;;;11.70;99.90;;;;;;5020106;28;20508;-29
2022/11/19 00:34:37;;;;;;;13.53;9.87;;;11.70;99.90;;;;;;5027666;28;20367;-28
2022/11/19 00:37:04;;;;;;;11.57;9.70;;;11.70;99.90;;;;;;5026912;28;20201;-28
2022/11/19 00:39:38;;;;;;;13.53;10.20;;;11.70;99.90;;;;;;5006182;28;20217;-28
2022/11/19 00:42:05;;;;;;;11.20;10.00;;;11.70;99.90;;;;;;4988538;28;20293;-28
2022/11/19 00:44:32;;;;;;;15.27;10.93;;;11.70;99.90;;;;;;4994205;28;20206;-28
2022/11/19 00:47:03;;;;;;;12.07;10.03;;;11.70;99.90;;;;;;5007996;28;20787;-28
2022/11/19 00:49:31;;;;;;;12.50;9.33;;;11.70;99.90;;;;;;5019315;28;20241;-28
2022/11/19 00:51:58;;;;;;;11.23;9.07;;;11.70;99.90;;;;;;5006530;28;20229;-28
2022/11/19 00:54:29;;;;;;;10.83;9.13;;;11.70;99.90;;;;;;5023220;28;20295;-28
2022/11/19 00:57:00;;;;;;;11.77;8.77;;;11.70;99.90;;;;;;5011063;28;20228;-28
2022/11/19 00:59:32;;;;;;;10.20;8.77;;;11.70;99.90;;;;;;5022128;28;20582;-28
2022/11/19 01:02:02;;;;;;;10.63;8.70;;;11.70;99.90;;;;;;5020714;28;20205;-28
2022/11/19 01:04:29;;;;;;;10.50;8.30;;;11.70;99.90;;;;;;5027652;28;20312;-28
2022/11/19 01:06:56;;;;;;;10.13;8.30;;;11.70;99.90;;;;;;5012043;28;20556;-28
2022/11/19 01:09:28;;;;;;;11.00;8.30;;;11.70;99.90;;;;;;5004921;28;20300;-28
2022/11/19 01:11:55;;;;;;;10.87;8.60;;;11.70;99.90;;;;;;5007103;28;20301;-28
2022/11/19 01:14:27;;;;;;;11.23;8.13;;;11.70;99.90;;;;;;5007174;28;20245;-28
2022/11/19 01:16:54;;;;;;;11.20;7.97;;;11.70;99.90;;;;;;5007520;28;20260;-28
2022/11/19 01:19:21;;;;;;;12.17;9.33;;;11.70;99.90;;;;;;5032592;28;20282;-28
2022/11/19 01:21:49;;;;;;;10.83;8.53;;;11.70;99.90;;;;;;5019468;28;20293;-28
2022/11/19 01:24:18;;;;;;;12.73;9.00;;;11.70;99.90;;;;;;5011659;28;20308;-28
2022/11/19 01:26:48;;;;;;;10.70;8.47;;;11.60;99.90;;;;;;5006601;28;20240;-28
2022/11/19 01:29:18;;;;;;;11.83;8.73;;;11.70;99.90;;;;;;5005999;28;20301;-28
2022/11/19 01:31:46;;;;;;;11.67;9.07;;;11.70;99.90;;;;;;5006884;28;20237;-28
2022/11/19 01:34:15;;;;;;;11.77;9.23;;;11.70;99.90;;;;;;5006856;28;20849;-28
2022/11/19 01:36:44;;;;;;;11.73;9.57;;;11.70;99.90;;;;;;5024721;28;20985;-28
2022/11/19 01:39:14;;;;;;;11.90;9.23;;;11.70;99.90;;;;;;5007129;28;20288;-28
2022/11/19 01:41:46;;;;;;;12.43;9.97;;;11.60;99.90;;;;;;5007040;28;20297;-28
2022/11/19 01:44:50;;;;;;;14.80;10.83;;;11.60;99.90;;;;;;5006188;28;20209;-28
2022/11/19 01:47:18;;;;;;;11.97;10.40;;;11.60;99.90;;;;;;5005806;28;20241;-29
2022/11/19 01:49:47;;;;;;;12.47;10.13;;;11.60;99.90;;;;;;5022693;28;20736;-28
2022/11/19 01:52:17;;;;;;;12.53;10.80;;;11.60;99.90;;;;;;5015252;28;20205;-28
2022/11/19 01:54:49;;;;;;;12.53;10.73;;;11.50;99.90;;;;;;5021121;28;20236;-28
2022/11/19 01:57:20;;;;;;;11.57;10.30;;;11.50;99.90;;;;;;5026313;28;20207;-28
2022/11/19 01:59:51;;;;;;;14.07;10.90;;;11.50;99.90;;;;;;5002679;28;20292;-28
2022/11/19 02:02:22;;;;;;;14.47;11.43;;;11.50;99.90;;;;;;4998205;28;20320;-28
2022/11/19 02:04:52;;;;;;;15.83;11.00;;;11.40;99.90;;;;;;5005961;28;20249;-29
2022/11/19 02:07:25;;;;;;;16.43;11.27;;;11.40;99.90;;;;;;4997918;28;20260;-28
2022/11/19 02:09:52;;;;;;;12.13;10.23;;;11.40;99.90;;;;;;5016095;28;20205;-28
2022/11/19 02:12:29;;;;;;;12.47;11.00;;;11.40;99.90;;;;;;5005222;28;20770;-28
2022/11/19 02:15:05;;;;;;;15.13;12.33;;;11.40;99.90;;;;;;5002868;28;20791;-28
2022/11/19 02:17:55;;;;;;;13.63;11.10;;;11.40;99.90;;;;;;4995643;28;20225;-29
2022/11/19 02:20:41;;;;;;;14.77;11.67;;;11.40;99.90;;;;;;5000844;28;20205;-28
2022/11/19 02:23:38;;;;;;;13.43;10.77;;;11.40;99.90;;;;;;5009882;28;20255;-28
2022/11/19 02:26:30;;;;;;;14.00;11.30;;;11.40;99.90;;;;;;5005870;28;20201;-28
2022/11/19 02:29:21;;;;;;;11.83;10.10;;;11.40;99.90;;;;;;5004330;28;20629;-28
2022/11/19 02:32:03;;;;;;;13.30;10.77;;;11.30;99.90;;;;;;5006016;28;20236;-29
2022/11/19 02:34:45;;;;;;;14.53;11.30;;;11.40;99.90;;;;;;5004926;28;20256;-28
2022/11/19 02:37:28;;;;;;;11.77;10.50;;;11.30;99.90;;;;;;5002340;28;20215;-28
2022/11/19 02:40:07;;;;;;;13.67;10.20;;;11.40;99.90;;;;;;5017802;28;20440;-28
2022/11/19 02:42:45;;;;;;;11.40;10.00;;;11.40;99.90;;;;;;5025318;28;20219;-28
2022/11/19 02:45:18;;;;;;;12.30;9.70;;;11.40;99.90;;;;;;5025879;28;20200;-28
2022/11/19 02:47:57;;;;;;;10.73;9.37;;;11.50;99.90;;;;;;5009579;28;20245;-28
2022/11/19 02:50:33;;;;;;;11.27;9.53;;;11.50;99.90;;;;;;4985165;28;20213;-28
2022/11/19 02:53:04;;;;;;;11.33;9.80;;;11.50;99.90;;;;;;4997193;28;20307;-28
2022/11/19 02:55:31;;;;;;;14.83;10.30;;;11.40;99.90;;;;;;5004077;28;20236;-28
2022/11/19 02:58:07;;;;;;;13.63;11.23;;;11.40;99.90;;;;;;5003893;28;20232;-28
2022/11/19 03:06:27;;;;;;;12.93;10.40;;;11.30;99.90;;;;;;5005629;28;20631;-28
2022/11/19 03:08:56;;;;;;;13.37;10.90;;;11.30;99.90;;;;;;5014900;28;20240;-29
2022/11/19 03:11:26;;;;;;;14.23;11.63;;;11.30;99.90;;;;;;5025490;28;20205;-28
2022/11/19 03:17:44;;;;;;;14.90;11.30;;;11.30;99.90;;;;;;5001884;28;20224;-28
2022/11/19 03:20:25;;;;;;;12.03;10.07;;;11.30;99.90;;;;;;4985719;28;20248;-28
2022/11/19 03:22:58;;;;;;;16.57;11.03;;;11.30;99.90;;;;;;4997967;28;20189;-28
2022/11/19 03:25:35;;;;;;;13.90;11.37;;;11.30;99.90;;;;;;5024807;28;20246;-28
2022/11/19 03:28:08;;;;;;;13.07;11.50;;;11.30;99.90;;;;;;5017640;28;20199;-28
2022/11/19 03:30:39;;;;;;;16.30;11.13;;;11.30;99.90;;;;;;5025432;28;20213;-28
2022/11/19 03:33:19;;;;;;;13.83;11.30;;;11.20;99.90;;;;;;5024892;28;20217;-28
2022/11/19 03:35:52;;;;;;;16.57;11.23;;;11.30;99.90;;;;;;5023135;28;20229;-28
2022/11/19 03:38:28;;;;;;;14.23;11.83;;;11.30;99.90;;;;;;5009139;28;20221;-28
2022/11/19 03:41:00;;;;;;;13.03;11.70;;;11.30;99.90;;;;;;5005280;28;20197;-28
2022/11/19 03:43:32;;;;;;;15.43;11.70;;;11.20;99.90;;;;;;5004718;28;20229;-28
2022/11/19 03:46:01;;;;;;;12.33;11.07;;;11.20;99.90;;;;;;5004438;28;20317;-28
2022/11/19 03:48:31;;;;;;;12.70;10.10;;;11.20;99.90;;;;;;5021256;28;20447;-28
2022/11/19 03:51:20;;;;;;;16.63;11.37;;;11.20;99.90;;;;;;5006916;28;20301;-28
2022/11/19 03:53:55;;;;;;;13.63;11.20;;;11.30;99.90;;;;;;5018514;28;20704;-28
2022/11/19 03:56:27;;;;;;;14.23;10.97;;;11.20;99.90;;;;;;5024862;28;20664;-28
2022/11/19 03:58:58;;;;;;;14.60;12.30;;;11.20;99.90;;;;;;5004919;28;20201;-28
2022/11/19 04:01:25;;;;;;;14.00;11.50;;;11.20;99.90;;;;;;5005024;28;20313;-28
2022/11/19 04:06:38;;;;;;;16.23;12.20;;;11.20;99.90;;;;;;5003867;28;20275;-28
2022/11/19 04:09:05;;;;;;;12.60;11.17;;;11.20;99.90;;;;;;5005026;28;20198;-28
2022/11/19 04:11:33;;;;;;;13.33;11.50;;;11.20;99.90;;;;;;5017792;28;20216;-28
2022/11/19 04:14:00;;;;;;;15.30;12.37;;;11.20;99.90;;;;;;5024788;28;20212;-28
2022/11/19 04:16:29;;;;;;;16.57;12.53;;;11.20;99.90;;;;;;5006105;28;20549;-28
2022/11/19 04:18:58;;;;;;;15.37;12.07;;;11.20;99.90;;;;;;5012971;28;20216;-28
2022/11/19 04:21:26;;;;;;;14.77;12.27;;;11.20;99.90;;;;;;5024321;28;20300;-28
2022/11/19 04:23:53;;;;;;;14.60;12.17;;;11.20;99.90;;;;;;5021256;28;20199;-28
2022/11/19 04:26:20;;;;;;;13.37;11.80;;;11.20;99.90;;;;;;5024711;28;20714;-28
2022/11/19 04:28:47;;;;;;;18.47;12.40;;;11.20;99.90;;;;;;5006810;28;20296;-28
2022/11/19 04:31:14;;;;;;;13.30;11.77;;;11.20;99.90;;;;;;5008139;28;20268;-28
2022/11/19 04:33:46;;;;;;;15.13;11.83;;;11.20;99.90;;;;;;5008363;28;20208;-28
2022/11/19 04:36:16;;;;;;;14.00;11.77;;;11.20;99.90;;;;;;5007867;28;20313;-28
2022/11/19 04:38:43;;;;;;;14.17;12.53;;;11.20;99.90;;;;;;5011952;28;20219;-28
2022/11/19 04:41:12;;;;;;;14.17;12.63;;;11.20;99.90;;;;;;5027705;28;20299;-28
2022/11/19 04:43:44;;;;;;;13.87;11.73;;;11.20;99.90;;;;;;5014274;28;20695;-28
2022/11/19 04:46:13;;;;;;;15.63;12.77;;;11.20;99.90;;;;;;5006748;28;20229;-28
2022/11/19 04:48:43;;;;;;;20.57;13.20;;;11.20;99.90;;;;;;5004445;28;20241;-29
2022/11/19 04:51:10;;;;;;;14.97;12.63;;;11.20;99.90;;;;;;4988579;28;20261;-29
2022/11/19 04:53:42;;;;;;;13.43;11.57;;;11.20;99.90;;;;;;5017578;28;20287;-28
2022/11/19 04:56:13;;;;;;;14.17;12.37;;;11.20;99.90;;;;;;5027127;28;20264;-29
2022/11/19 04:58:43;;;;;;;16.17;12.63;;;11.20;99.90;;;;;;5007313;28;20228;-28
2022/11/19 05:01:15;;;;;;;15.30;11.77;;;11.20;99.90;;;;;;5007656;28;20197;-28
2022/11/19 05:03:50;;;;;;;14.90;12.43;;;11.20;99.90;;;;;;5007615;28;20206;-28
2022/11/19 05:06:20;;;;;;;17.17;12.80;;;11.20;99.90;;;;;;5006724;28;20288;-28
2022/11/19 05:08:49;;;;;;;17.37;12.40;;;11.20;99.90;;;;;;5007144;28;20214;-28
2022/11/19 05:11:19;;;;;;;14.07;11.77;;;11.20;99.90;;;;;;5025727;28;20303;-28
2022/11/19 05:13:46;;;;;;;14.50;11.97;;;11.20;99.90;;;;;;5015973;28;20284;-28
2022/11/19 05:16:18;;;;;;;14.33;12.50;;;11.20;99.90;;;;;;5004901;28;20699;-28
2022/11/19 05:18:45;;;;;;;14.30;12.60;;;11.10;99.90;;;;;;5005173;28;20221;-28
2022/11/19 05:21:15;;;;;;;19.70;13.67;;;11.10;99.90;;;;;;5007184;28;20237;-28
2022/11/19 05:23:46;;;;;;;17.07;12.70;;;11.20;99.90;;;;;;5022823;28;20735;-28
2022/11/19 05:26:16;;;;;;;18.07;12.63;;;11.20;99.90;;;;;;5026461;28;20250;-28
2022/11/19 05:28:45;;;;;;;13.80;12.33;;;11.20;99.90;;;;;;5005280;28;20377;-28
2022/11/19 05:31:15;;;;;;;14.17;12.30;;;11.20;99.90;;;;;;5007208;28;20291;-28
2022/11/19 05:33:42;;;;;;;18.23;13.70;;;11.20;99.90;;;;;;5006586;28;20297;-28
2022/11/19 05:36:09;;;;;;;15.00;12.90;;;11.20;99.90;;;;;;5007039;28;20786;-28
2022/11/19 05:38:36;;;;;;;15.63;12.53;;;11.20;99.90;;;;;;4997072;28;20264;-28
2022/11/19 05:41:06;;;;;;;15.43;13.13;;;11.20;99.90;;;;;;5024967;28;20303;-28
2022/11/19 05:43:33;;;;;;;14.07;11.97;;;11.20;99.90;;;;;;5016266;28;20205;-28
2022/11/19 05:46:01;;;;;;;17.13;13.70;;;11.20;99.90;;;;;;5006898;28;20283;-28
2022/11/19 05:48:30;;;;;;;14.60;12.90;;;11.20;99.90;;;;;;5004303;28;20293;-28
2022/11/19 05:51:00;;;;;;;16.37;12.87;;;11.20;99.90;;;;;;5007077;28;20326;-29
2022/11/19 05:53:27;;;;;;;16.33;13.13;;;11.20;99.90;;;;;;5019146;28;20287;-28
2022/11/19 05:55:57;;;;;;;15.13;12.53;;;11.20;99.90;;;;;;5024069;28;20225;-28
2022/11/19 05:58:26;;;;;;;15.00;13.10;;;11.20;99.90;;;;;;5016285;28;20263;-28
2022/11/19 06:01:00;;;;;;;14.13;12.60;;;11.20;99.90;;;;;;4991830;28;20229;-28
2022/11/19 06:03:30;;;;;;;14.60;12.47;;;11.20;99.90;;;;;;5000903;28;20230;-29
2022/11/19 06:06:01;;;;;;;17.60;13.47;;;11.20;99.90;;;;;;5002224;28;20295;-28
2022/11/19 06:08:30;;;;;;;15.17;12.83;;;11.20;99.90;;;;;;4999961;28;20276;-28
2022/11/19 06:11:03;;;;;;;17.87;14.50;;;11.20;99.90;;;;;;5002286;28;20343;-28
2022/11/19 06:13:31;;;;;;;15.87;14.17;;;11.20;99.90;;;;;;5004057;28;20331;-28
2022/11/19 06:15:58;;;;;;;20.30;16.93;;;11.20;99.90;;;;;;4997639;28;20320;-28
2022/11/19 06:18:29;;;;;;;17.70;15.40;;;11.20;99.90;;;;;;4997807;28;20687;-29
2022/11/19 06:20:56;;;;;;;18.43;15.57;;;11.10;99.90;;;;;;5018584;28;20296;-28
2022/11/19 06:23:28;;;;;;;18.70;16.63;;;11.20;99.90;;;;;;5016168;28;20243;-29
2022/11/19 06:25:57;;;;;;;19.10;16.67;;;11.20;99.90;;;;;;5005959;28;20236;-28
2022/11/19 06:28:25;;;;;;;20.50;16.77;;;11.20;99.90;;;;;;5005167;28;20288;-28
2022/11/19 06:30:54;;;;;;;19.17;14.53;;;11.10;99.90;;;;;;5005475;28;20214;-29
2022/11/19 06:33:26;;;;;;;17.63;13.27;;;11.00;99.90;;;;;;4989615;28;20206;-29
2022/11/19 06:35:55;;;;;;;13.77;12.03;;;11.00;99.90;;;;;;5002190;28;20287;-28
2022/11/19 06:38:27;;;;;;;16.33;12.60;;;10.90;99.90;;;;;;5004163;28;20206;-29
2022/11/19 06:40:56;;;;;;;14.23;11.20;;;10.80;99.90;;;;;;5007788;28;20219;-29
2022/11/19 06:43:26;;;;;;;12.37;10.63;;;10.70;99.90;;;;;;5002545;28;20566;-29
2022/11/19 06:45:58;;;;;;;12.17;10.20;;;10.70;99.90;;;;;;5004619;28;20205;-28
2022/11/19 06:48:25;;;;;;;10.10;8.90;;;10.60;99.90;;;;;;5005006;28;20606;-29
2022/11/19 06:50:55;;;;;;;9.77;7.40;;;10.40;99.90;;;;;;5006015;28;20676;-29
2022/11/19 06:53:27;;;;;;;9.07;6.90;;;10.30;99.90;;;;;;5004473;28;20259;-29
2022/11/19 06:55:58;;;;;;;6.87;6.17;;;10.10;99.90;;;;;;5004750;28;20311;-29
2022/11/19 06:58:25;;;;;;;5.30;4.80;;;10.00;99.90;;;;;;5003895;28;20233;-28
2022/11/19 07:00:55;;;;;;;6.00;5.30;;;9.90;99.90;;;;;;4991745;28;20202;-29
2022/11/19 07:03:23;;;;;;;7.60;5.47;;;9.90;99.90;;;;;;4982146;28;20702;-29
2022/11/19 07:05:59;;;;;;;5.27;4.77;;;9.90;99.90;;;;;;4993798;28;20587;-28
2022/11/19 07:08:32;;;;;;;5.20;4.70;;;9.80;99.90;;;;;;4993534;28;20318;-28
2022/11/19 07:11:00;;;;;;;7.77;5.20;;;9.80;99.90;;;;;;4983986;28;20337;-29
2022/11/19 07:13:56;;;;;;;5.50;5.00;;;9.80;99.90;;;;;;4988252;28;20337;-29
2022/11/19 07:16:21;;;;;;;6.20;5.60;;;9.60;99.90;;;;;;5012415;28;20236;-31
2022/11/19 07:18:48;;;;;;;8.53;6.63;;;9.50;99.90;;;;;;5009632;28;20208;-31
2022/11/19 07:21:17;;;;;;;7.43;6.60;;;9.40;99.90;;;;;;5005726;28;20692;-31
2022/11/19 07:23:47;;;;;;;6.13;5.53;;;9.40;99.90;;;;;;5008093;28;20225;-31
2022/11/19 07:26:14;;;;;;;7.33;6.63;;;9.30;99.90;;;;;;5015352;28;20220;-31
2022/11/19 07:28:41;;;;;;;8.70;7.30;;;9.20;99.90;;;;;;5007428;28;20206;-31
2022/11/19 07:31:08;;;;;;;7.60;6.73;;;9.20;99.90;;;;;;5008788;28;20207;-30
2022/11/19 07:33:38;;;;;;;7.50;6.80;;;9.10;99.90;;;;;;5016163;28;20287;-31
2022/11/19 07:36:07;;;;;;;7.70;6.90;;;9.10;99.90;;;;;;5008854;28;20712;-31
2022/11/19 07:38:42;;;;;;;7.17;6.47;;;9.00;99.90;;;;;;4994717;28;20259;-31
2022/11/19 07:43:55;;;;;;;8.50;7.20;;;8.90;99.90;;;;;;5002136;28;20201;-31
2022/11/19 07:46:22;;;;;;;7.53;6.63;;;8.90;99.90;;;;;;5009674;28;20204;-31
2022/11/19 07:48:54;;;;;;;7.77;6.13;;;8.90;99.90;;;;;;5001176;28;20681;-31
2022/11/19 07:51:22;;;;;;;6.57;5.97;;;8.80;99.90;;;;;;5008292;28;20735;-29
2022/11/19 07:53:50;;;;;;;7.00;6.40;;;8.80;99.90;;;;;;5022204;28;20205;-29
2022/11/19 07:56:25;;;;;;;7.50;6.80;;;8.80;99.90;;;;;;5005389;28;20267;-29
2022/11/19 07:58:54;;;;;;;8.17;6.80;;;8.80;99.90;;;;;;5017065;28;20197;-29
2022/11/19 08:01:23;;;;;;;7.90;7.10;;;8.80;99.90;;;;;;5011022;28;20205;-29
2022/11/19 08:03:54;;;;;;;8.93;7.37;;;8.80;99.90;;;;;;5012227;28;20205;-28
2022/11/19 08:06:28;;;;;;;8.43;7.53;;;8.80;99.90;;;;;;5008939;28;20217;-28
2022/11/19 08:08:56;;;;;;;8.20;7.40;;;8.70;99.90;;;;;;5007348;28;20233;-28
2022/11/19 08:11:23;;;;;;;8.57;7.77;;;8.70;99.90;;;;;;5004931;28;20221;-28
2022/11/19 08:13:53;;;;;;;8.80;7.90;;;8.60;99.90;;;;;;5035026;28;20244;-28
2022/11/19 08:19:14;;;;;;;9.33;8.30;;;8.60;99.90;;;;;;5018971;28;20200;-28
2022/11/19 08:21:45;;;;;;;8.23;7.43;;;8.60;99.90;;;;;;5030280;28;20282;-28
2022/11/19 08:24:13;;;;;;;9.23;7.77;;;8.50;99.90;;;;;;5017298;28;20316;-28
2022/11/19 08:26:44;;;;;;;9.80;7.47;;;8.50;99.90;;;;;;5005879;28;20209;-28
2022/11/19 08:29:13;;;;;;;10.33;8.93;;;8.40;99.90;;;;;;5007927;28;20323;-28
2022/11/19 08:31:46;;;;;;;9.83;8.83;;;8.40;99.90;;;;;;5016549;28;20207;-28
2022/11/19 08:34:19;;;;;;;8.93;8.03;;;8.30;99.90;;;;;;5008262;28;20320;-28
2022/11/19 08:36:49;;;;;;;8.97;7.90;;;8.30;99.90;;;;;;5018740;28;20711;-28
2022/11/19 08:39:16;;;;;;;8.50;7.60;;;8.30;99.90;;;;;;5003630;28;20205;-28
2022/11/19 08:44:31;;;;;;;7.77;6.97;;;8.20;99.90;;;;;;5018063;28;20231;-28
2022/11/19 08:46:58;;;;;;;7.73;6.93;;;8.10;99.90;;;;;;5009635;28;20754;-28
2022/11/19 08:49:25;;;;;;;8.43;7.27;;;8.00;99.90;;;;;;4998920;28;20269;-28
2022/11/19 08:51:52;;;;;;;7.57;6.87;;;8.00;99.90;;;;;;5020650;28;20271;-28
2022/11/19 08:54:24;;;;;;;10.83;8.50;;;8.00;99.90;;;;;;5004008;28;20839;-28
2022/11/19 08:56:52;;;;;;;9.53;8.53;;;8.00;99.90;;;;;;5016164;28;20225;-29
2022/11/19 08:59:20;;;;;;;10.87;8.73;;;7.90;99.90;;;;;;5003799;28;20224;-28
2022/11/19 09:01:50;;;;;;;10.30;9.17;;;7.90;99.90;;;;;;5014528;28;20662;-29
2022/11/19 09:04:17;;;;;;;10.27;9.20;;;7.80;99.90;;;;;;5003558;28;20691;-29
2022/11/19 09:06:47;;;;;;;10.70;9.60;;;7.80;99.90;;;;;;5023191;28;20574;-28
2022/11/19 09:09:14;;;;;;;14.23;11.00;;;7.70;99.90;;;;;;5006677;28;20645;-31
2022/11/19 09:11:43;;;;;;;12.13;10.83;;;7.60;99.90;;;;;;5013018;28;20253;-31
2022/11/19 09:14:13;;;;;;;12.43;11.03;;;7.60;99.90;;;;;;5002344;28;20230;-30
2022/11/19 09:16:42;;;;;;;12.33;11.00;;;7.60;99.90;;;;;;5006609;28;20320;-30
2022/11/19 09:19:10;;;;;;;15.90;13.40;;;7.60;99.90;;;;;;5019297;28;20236;-30
2022/11/19 09:21:39;;;;;;;16.17;13.77;;;7.60;99.90;;;;;;5027148;28;20201;-30
2022/11/19 09:24:06;;;;;;;18.53;15.43;;;7.60;99.90;;;;;;5024970;28;20556;-30
2022/11/19 09:26:34;;;;;;;16.43;14.50;;;7.60;99.90;;;;;;5007210;28;20276;-30
2022/11/19 09:29:01;;;;;;;16.97;14.47;;;7.60;99.90;;;;;;5003944;28;20201;-30
2022/11/19 09:31:28;;;;;;;17.23;14.57;;;7.60;99.90;;;;;;5018355;28;20250;-30
2022/11/19 09:33:58;;;;;;;21.23;15.70;;;7.60;99.90;;;;;;5011048;28;20573;-30
2022/11/19 09:36:27;;;;;;;18.27;14.80;;;7.60;99.90;;;;;;4996989;28;20312;-30
2022/11/19 09:38:56;;;;;;;17.57;14.50;;;7.70;99.90;;;;;;5014107;28;20279;-30
2022/11/19 09:41:58;;;;;;;21.27;15.27;;;7.70;99.90;;;;;;5019786;28;20212;-30
2022/11/19 09:44:40;;;;;;;20.93;15.60;;;7.70;99.90;;;;;;4995500;28;20300;-30
2022/11/19 09:47:31;;;;;;;20.93;15.57;;;7.70;99.90;;;;;;5005965;28;20287;-30
2022/11/19 09:50:17;;;;;;;18.33;15.17;;;7.70;99.90;;;;;;4995405;28;20661;-30
2022/11/19 09:53:05;;;;;;;19.87;15.13;;;7.70;99.90;;;;;;5007571;28;20606;-30
2022/11/19 09:55:37;;;;;;;19.37;15.40;;;7.70;99.90;;;;;;5008193;28;20224;-30
2022/11/19 09:58:13;;;;;;;21.20;15.70;;;7.70;99.90;;;;;;5009447;28;20244;-30
2022/11/19 10:00:43;;;;;;;21.07;16.13;;;7.70;99.90;;;;;;5014296;28;20243;-30
2022/11/19 10:03:14;;;;;;;20.33;16.23;;;7.80;99.90;;;;;;5003281;28;20252;-30
2022/11/19 10:06:20;;;;;;;21.03;16.73;;;7.80;99.90;;;;;;5011382;28;20209;-30
2022/11/19 10:08:52;;;;;;;20.30;16.33;;;7.80;99.90;;;;;;4985475;28;20249;-30
2022/11/19 10:11:45;;;;;;;20.30;16.10;;;7.80;99.90;;;;;;5009001;28;20209;-30
2022/11/19 10:14:40;;;;;;;21.27;16.80;;;7.80;99.90;;;;;;5001985;28;20240;-30
2022/11/19 10:17:34;;;;;;;22.10;17.37;;;7.80;99.90;;;;;;5003723;28;20240;-30
2022/11/19 10:20:01;;;;;;;22.03;17.70;;;7.80;99.90;;;;;;4987727;28;20347;-30
2022/11/19 10:22:44;;;;;;;25.13;19.37;;;7.80;99.90;;;;;;5018775;28;20303;-31
2022/11/19 10:25:32;;;;;;;26.83;19.87;;;7.70;99.90;;;;;;5018539;28;20290;-30
2022/11/19 10:28:30;;;;;;;24.30;19.33;;;7.70;99.90;;;;;;5021723;28;20232;-30
2022/11/19 10:31:16;;;;;;;27.17;19.83;;;7.70;99.90;;;;;;5024303;28;20197;-30
2022/11/19 10:33:53;;;;;;;29.27;20.67;;;7.70;99.90;;;;;;5012611;28;20308;-31
2022/11/19 10:36:30;;;;;;;25.87;19.50;;;7.70;99.90;;;;;;5005925;28;20749;-30
2022/11/19 10:39:12;;;;;;;25.10;19.90;;;7.70;99.90;;;;;;4998279;28;20215;-30
2022/11/19 10:41:44;;;;;;;29.63;20.37;;;7.70;99.90;;;;;;5018406;28;20204;-30
2022/11/19 10:44:47;;;;;;;24.57;19.50;;;7.70;99.90;;;;;;5021229;28;20455;-30
2022/11/19 10:47:38;;;;;;;24.53;19.20;;;7.70;99.90;;;;;;5017443;28;20214;-30
2022/11/19 10:50:13;;;;;;;24.90;19.93;;;7.80;99.90;;;;;;5003795;28;20244;-30
2022/11/19 10:52:45;;;;;;;25.20;20.40;;;7.80;99.90;;;;;;5005109;28;20201;-30
2022/11/19 10:55:18;;;;;;;27.50;20.83;;;7.80;99.90;;;;;;5008765;28;20571;-30
2022/11/19 10:57:49;;;;;;;28.67;22.50;;;7.80;99.90;;;;;;4998406;28;20631;-30
2022/11/19 11:00:21;;;;;;;30.47;23.63;;;7.80;99.90;;;;;;5002983;28;20265;-31
2022/11/19 11:02:55;;;;;;;33.17;22.63;;;7.70;99.90;;;;;;5018432;28;20205;-30
2022/11/19 11:05:25;;;;;;;34.20;23.43;;;7.70;99.90;;;;;;5025385;28;20201;-31
2022/11/19 11:08:09;;;;;;;31.47;22.43;;;7.70;99.90;;;;;;5014098;28;20304;-30
2022/11/19 11:10:42;;;;;;;28.67;22.30;;;7.60;99.90;;;;;;5018477;28;20213;-30
2022/11/19 11:16:03;;;;;;;29.83;21.57;;;7.60;99.90;;;;;;5006191;28;20316;-31
2022/11/19 11:18:30;;;;;;;27.00;20.73;;;7.50;99.90;;;;;;4997654;28;20290;-30
2022/11/19 11:21:01;;;;;;;29.13;21.00;;;7.50;99.90;;;;;;5004961;28;20479;-31
2022/11/19 11:23:31;;;;;;;28.40;21.07;;;7.60;99.90;;;;;;5001446;28;20241;-31
2022/11/19 11:26:10;;;;;;;25.90;19.90;;;7.50;99.90;;;;;;4999588;28;20298;-30
2022/11/19 11:29:04;;;;;;;24.80;19.97;;;7.50;99.90;;;;;;5007947;28;20282;-30
2022/11/19 11:31:35;;;;;;;25.00;19.30;;;7.50;99.90;;;;;;5005491;28;20221;-30
2022/11/19 11:34:04;;;;;;;27.37;19.93;;;7.50;99.90;;;;;;4992122;28;20465;-30
2022/11/19 11:36:35;;;;;;;28.40;20.13;;;7.50;99.90;;;;;;5012705;28;20225;-31
2022/11/19 11:39:04;;;;;;;24.23;18.50;;;7.50;99.90;;;;;;5006617;28;20213;-30
2022/11/19 11:41:31;;;;;;;26.10;19.87;;;7.50;99.90;;;;;;5024750;28;20508;-30
2022/11/19 11:44:21;;;;;;;25.20;19.97;;;7.50;99.90;;;;;;5024545;28;20303;-30
2022/11/19 11:46:56;;;;;;;30.50;22.33;;;7.50;99.90;;;;;;5011812;28;20213;-30
2022/11/19 11:49:36;;;;;;;31.10;22.97;;;7.60;99.90;;;;;;5001417;28;20302;-30
2022/11/19 11:52:15;;;;;;;34.50;23.23;;;7.50;99.90;;;;;;4990124;28;20260;-30
2022/11/19 11:55:00;;;;;;;30.23;23.23;;;7.50;99.90;;;;;;5008844;28;20257;-30
2022/11/19 11:57:32;;;;;;;30.03;23.63;;;7.50;99.90;;;;;;5008358;28;20965;-30
2022/11/19 12:00:04;;;;;;;29.60;21.47;;;7.50;99.90;;;;;;4989695;28;20209;-31
2022/11/19 12:02:36;;;;;;;32.37;23.93;;;7.50;99.90;;;;;;4996966;28;20198;-30
2022/11/19 12:05:21;;;;;;;32.67;24.07;;;7.50;99.90;;;;;;5000628;28;20209;-30
2022/11/19 12:08:17;;;;;;;31.30;23.27;;;7.50;99.90;;;;;;5011871;28;20281;-30
2022/11/19 12:11:17;;;;;;;35.37;24.37;;;7.50;99.90;;;;;;4991987;28;20640;-30
2022/11/19 12:14:08;;;;;;;32.00;23.50;;;7.40;99.90;;;;;;5015229;28;20296;-30
2022/11/19 12:17:16;;;;;;;33.10;24.43;;;7.40;99.90;;;;;;5003135;28;20352;-30
2022/11/19 12:20:02;;;;;;;28.00;23.07;;;7.30;99.90;;;;;;5006837;28;20208;-31
2022/11/19 12:22:59;;;;;;;30.43;22.83;;;7.30;99.90;;;;;;5013096;28;20823;-30
2022/11/19 12:25:47;;;;;;;30.13;23.77;;;7.30;99.90;;;;;;4997137;28;20293;-30
2022/11/19 12:28:41;;;;;;;27.87;22.03;;;7.20;99.90;;;;;;5011263;28;20757;-31
2022/11/19 12:31:10;;;;;;;27.00;21.90;;;7.30;99.90;;;;;;4994300;28;20678;-30
2022/11/19 12:34:24;;;;;;;27.00;19.37;;;7.20;99.90;;;;;;5022225;28;20205;-30
2022/11/19 12:37:11;;;;;;;24.30;19.90;;;7.20;99.90;;;;;;5006508;28;20317;-30
2022/11/19 12:40:06;;;;;;;24.27;18.67;;;7.10;99.90;;;;;;5006666;28;20222;-30
2022/11/19 12:43:14;;;;;;;24.23;18.60;;;7.10;99.90;;;;;;5010195;28;20272;-31
2022/11/19 12:46:06;;;;;;;29.40;21.40;;;7.10;99.90;;;;;;4985555;28;20715;-30
2022/11/19 12:48:59;;;;;;;26.30;20.53;;;7.20;99.90;;;;;;4996160;28;20326;-30
2022/11/19 12:51:45;;;;;;;28.87;21.17;;;7.10;99.90;;;;;;4988655;28;20665;-30
2022/11/19 12:54:29;;;;;;;28.43;21.63;;;7.20;99.90;;;;;;5005627;28;20627;-31
2022/11/19 12:57:40;;;;;;;30.50;23.33;;;7.20;99.90;;;;;;5007478;28;20303;-30
2022/11/19 13:00:18;;;;;;;39.03;26.63;;;7.20;99.90;;;;;;5005556;28;20203;-30
2022/11/19 13:03:15;;;;;;;35.90;26.23;;;7.10;99.90;;;;;;4988003;28;20206;-30
2022/11/19 13:06:01;;;;;;;34.83;25.90;;;7.10;99.90;;;;;;4988715;28;20203;-30
2022/11/19 13:08:37;;;;;;;36.60;27.10;;;7.10;99.90;;;;;;5003464;28;20208;-30
2022/11/19 13:11:16;;;;;;;35.93;27.00;;;7.00;99.90;;;;;;5009118;28;20259;-30
2022/11/19 13:13:48;;;;;;;37.07;25.23;;;7.00;99.90;;;;;;5009143;28;20229;-31
2022/11/19 13:16:19;;;;;;;37.10;24.87;;;6.80;99.90;;;;;;5008616;28;20250;-30
2022/11/19 13:18:52;;;;;;;35.87;25.70;;;6.90;99.90;;;;;;5003067;28;20260;-30
2022/11/19 13:21:22;;;;;;;40.43;26.50;;;6.90;99.90;;;;;;5023343;28;20207;-30
2022/11/19 13:23:51;;;;;;;39.17;26.17;;;6.90;99.90;;;;;;5019710;28;20783;-30
2022/11/19 13:26:28;;;;;;;39.50;27.83;;;6.80;99.90;;;;;;5011713;28;20259;-30
2022/11/19 13:29:24;;;;;;;39.03;26.80;;;6.80;99.90;;;;;;5009850;28;20618;-30
2022/11/19 13:32:01;;;;;;;41.77;27.10;;;6.80;99.90;;;;;;5026436;28;20221;-30
2022/11/19 13:34:44;;;;;;;42.37;29.63;;;6.80;99.90;;;;;;4992500;28;20205;-30
2022/11/19 13:37:37;;;;;;;43.17;30.00;;;6.70;99.90;;;;;;5002460;28;20274;-30